createdAt,value
2022-12-19T00:01:34.946Z,95741.75
2022-12-19T00:04:08.072Z,95752.59
2022-12-19T00:06:36.548Z,95754.88
2022-12-19T00:09:04.373Z,95753.25
2022-12-19T00:11:31.654Z,95751.56
2022-12-19T00:13:58.858Z,95752.16
2022-12-19T00:16:28.926Z,95748.81
2022-12-19T00:18:57.786Z,95736.19
2022-12-19T00:21:28.196Z,95731.38
2022-12-19T00:23:55.072Z,95723.84
2022-12-19T00:26:24.059Z,95718.25
2022-12-19T00:28:52.608Z,95707.44
2022-12-19T00:31:20.929Z,95691.97
2022-12-19T00:33:48.174Z,95693.63
2022-12-19T00:36:16.885Z,95687.31
2022-12-19T00:38:51.418Z,95672.69
2022-12-19T00:41:20.415Z,95671.88
2022-12-19T00:43:47.426Z,95681.16
2022-12-19T00:46:15.665Z,95681.41
2022-12-19T00:48:43.117Z,95692.44
2022-12-19T00:51:12.112Z,95687.22
2022-12-19T00:53:38.684Z,95692.94
2022-12-19T00:56:10.065Z,95692.28
2022-12-19T00:58:36.664Z,95687.31
2022-12-19T01:01:06.177Z,95697.84
2022-12-19T01:03:32.894Z,95693.63
2022-12-19T01:05:59.579Z,95682.19
2022-12-19T01:08:26.735Z,95674.22
2022-12-19T01:10:54.177Z,95669.78
2022-12-19T01:13:24.589Z,95674.19
2022-12-19T01:15:51.253Z,95659.91
2022-12-19T01:18:17.838Z,95662.34
2022-12-19T01:20:48.433Z,95646.59
2022-12-19T01:23:16.477Z,95648.25
2022-12-19T01:25:48.067Z,95644.50
2022-12-19T01:28:15.579Z,95641.16
2022-12-19T01:30:43.937Z,95647.53
2022-12-19T01:33:15.218Z,95640.50
2022-12-19T01:35:42.521Z,95639.09
2022-12-19T01:38:13.210Z,95636.72
2022-12-19T01:40:39.910Z,95634.78
2022-12-19T01:43:13.650Z,95625.16
2022-12-19T01:45:45.612Z,95641.56
2022-12-19T01:48:18.658Z,95655.06
2022-12-19T01:51:00.844Z,95657.66
2022-12-19T01:53:34.716Z,95653.09
2022-12-19T01:56:08.397Z,95650.38
2022-12-19T01:58:36.504Z,95654.88
2022-12-19T02:01:03.118Z,95669.06
2022-12-19T02:03:33.455Z,95667.66
2022-12-19T02:06:01.815Z,95670.13
2022-12-19T02:08:28.936Z,95665.75
2022-12-19T02:10:57.437Z,95663.81
2022-12-19T02:13:24.397Z,95680.38
2022-12-19T02:15:59.088Z,95692.41
2022-12-19T02:18:39.007Z,95685.75
2022-12-19T02:21:16.440Z,95690.50
2022-12-19T02:24:19.444Z,95716.88
2022-12-19T02:27:05.786Z,95755.97
2022-12-19T02:29:59.900Z,95759.72
2022-12-19T02:32:33.953Z,95770.34
2022-12-19T02:35:09.758Z,95791.41
2022-12-19T02:37:47.847Z,95829.97
2022-12-19T02:40:21.098Z,95833.69
2022-12-19T02:42:51.845Z,95840.63
2022-12-19T02:45:28.833Z,95847.72
2022-12-19T02:47:58.663Z,95848.00
2022-12-19T02:50:36.569Z,95841.19
2022-12-19T02:53:03.157Z,95841.72
2022-12-19T02:55:36.350Z,95847.19
2022-12-19T02:58:21.619Z,95837.47
2022-12-19T03:00:57.856Z,95848.41
2022-12-19T03:03:38.085Z,95846.78
2022-12-19T03:06:13.988Z,95845.97
2022-12-19T03:08:47.603Z,95840.75
2022-12-19T03:11:15.491Z,95858.53
2022-12-19T03:13:48.195Z,95856.06
2022-12-19T03:16:14.930Z,95869.06
2022-12-19T03:18:43.344Z,95870.03
2022-12-19T03:21:16.428Z,95869.06
2022-12-19T03:23:44.594Z,95880.41
2022-12-19T03:26:16.563Z,95877.69
2022-12-19T03:28:48.978Z,95876.88
2022-12-19T03:31:17.707Z,95874.81
2022-12-19T03:33:47.768Z,95874.69
2022-12-19T03:36:19.881Z,95865.38
2022-12-19T03:38:48.666Z,95841.59
2022-12-19T03:41:37.655Z,95846.66
2022-12-19T03:44:06.683Z,95821.91
2022-12-19T03:46:41.397Z,95823.25
2022-12-19T03:49:09.489Z,95820.66
2022-12-19T03:51:59.652Z,95803.03
2022-12-19T03:54:30.029Z,95803.31
2022-12-19T03:57:02.024Z,95812.47
2022-12-19T03:59:34.085Z,95818.88
2022-12-19T04:02:02.808Z,95820.66
2022-12-19T04:04:35.980Z,95819.72
2022-12-19T04:07:04.022Z,95832.56
2022-12-19T04:09:32.159Z,95831.94
2022-12-19T04:12:03.218Z,95838.09
2022-12-19T04:14:31.886Z,95839.78
2022-12-19T04:17:08.625Z,95845.09
2022-12-19T04:19:43.663Z,95832.66
2022-12-19T04:22:14.819Z,95851.56
2022-12-19T04:24:44.290Z,95841.03
2022-12-19T04:27:12.496Z,95851.28
2022-12-19T04:29:40.022Z,95845.78
2022-12-19T04:32:08.381Z,95844.81
2022-12-19T04:34:41.392Z,95852.78
2022-12-19T04:37:09.819Z,95839.66
2022-12-19T04:39:36.433Z,95848.84
2022-12-19T04:42:02.986Z,95837.66
2022-12-19T04:44:29.666Z,95840.13
2022-12-19T04:46:56.280Z,95833.03
2022-12-19T04:49:22.941Z,95818.78
2022-12-19T04:51:52.188Z,95826.53
2022-12-19T04:54:18.970Z,95827.91
2022-12-19T04:56:45.546Z,95816.28
2022-12-19T04:59:12.163Z,95804.81
2022-12-19T05:01:38.862Z,95803.03
2022-12-19T05:04:05.544Z,95804.56
2022-12-19T05:06:32.442Z,95801.78
2022-12-19T05:09:00.358Z,95804.38
2022-12-19T05:11:26.968Z,95816.00
2022-12-19T05:13:53.553Z,95795.59
2022-12-19T05:16:20.174Z,95797.69
2022-12-19T05:18:46.989Z,95783.06
2022-12-19T05:21:13.719Z,95773.91
2022-12-19T05:23:40.458Z,95765.97
2022-12-19T05:26:08.894Z,95763.25
2022-12-19T05:28:35.548Z,95763.47
2022-12-19T05:31:04.051Z,95785.34
2022-12-19T05:33:30.659Z,95777.88
2022-12-19T05:35:57.253Z,95762.56
2022-12-19T05:38:23.856Z,95768.47
2022-12-19T05:40:50.453Z,95764.19
2022-12-19T05:43:18.379Z,95778.00
2022-12-19T05:45:44.968Z,95777.19
2022-12-19T05:48:11.614Z,95791.94
2022-12-19T05:50:38.167Z,95793.59
2022-12-19T05:53:04.804Z,95789.22
2022-12-19T05:55:31.602Z,95788.75
2022-12-19T05:57:58.151Z,95792.13
2022-12-19T06:00:26.124Z,95792.78
2022-12-19T06:02:52.698Z,95791.00
2022-12-19T06:05:19.378Z,95788.81
2022-12-19T06:07:46.539Z,95789.63
2022-12-19T06:10:13.064Z,95786.47
2022-12-19T06:12:39.991Z,95791.00
2022-12-19T06:15:07.498Z,95798.38
2022-12-19T06:17:35.427Z,95804.94
2022-12-19T06:20:01.971Z,95806.19
2022-12-19T06:22:28.510Z,95813.28
2022-12-19T06:24:55.051Z,95803.97
2022-12-19T06:27:21.585Z,95809.03
2022-12-19T06:29:48.122Z,95813.16
2022-12-19T06:32:14.691Z,95817.78
2022-12-19T06:37:29.133Z,95816.16
2022-12-19T06:39:55.668Z,95821.50
2022-12-19T06:42:25.520Z,95813.41
2022-12-19T06:44:53.688Z,95818.63
2022-12-19T06:47:22.388Z,95827.22
2022-12-19T06:49:50.363Z,95818.88
2022-12-19T06:52:17.705Z,95816.84
2022-12-19T06:54:44.261Z,95810.69
2022-12-19T06:57:10.814Z,95810.66
2022-12-19T06:59:37.389Z,95820.59
2022-12-19T07:02:13.242Z,95824.59
2022-12-19T07:04:45.939Z,95821.06
2022-12-19T07:07:13.954Z,95828.06
2022-12-19T07:09:40.877Z,95831.06
2022-12-19T07:12:07.889Z,95828.31
2022-12-19T07:14:34.644Z,95822.72
2022-12-19T07:17:02.760Z,95832.97
2022-12-19T07:19:32.818Z,95836.13
2022-12-19T07:22:02.176Z,95829.81
2022-12-19T07:24:30.601Z,95840.91
2022-12-19T07:26:57.922Z,95833.31
2022-12-19T07:29:24.571Z,95841.19
2022-12-19T07:31:51.265Z,95848.84
2022-12-19T07:34:17.919Z,95843.38
2022-12-19T07:36:44.542Z,95838.84
2022-12-19T07:39:11.166Z,95850.56
2022-12-19T07:41:39.349Z,95845.69
2022-12-19T07:44:06.816Z,95848.69
2022-12-19T07:46:33.431Z,95850.06
2022-12-19T07:49:00.217Z,95848.41
2022-12-19T07:51:27.334Z,95846.09
2022-12-19T07:53:53.923Z,95853.47
2022-12-19T07:56:20.544Z,95859.38
2022-12-19T07:58:48.477Z,95844.16
2022-12-19T08:01:15.173Z,95850.44
2022-12-19T08:03:41.758Z,95855.53
2022-12-19T08:06:09.238Z,95840.00
2022-12-19T08:08:37.592Z,95845.81
2022-12-19T08:11:09.792Z,95837.72
2022-12-19T08:13:40.813Z,95849.25
2022-12-19T08:16:12.758Z,95860.88
2022-12-19T08:18:39.390Z,95861.13
2022-12-19T08:21:07.611Z,95855.53
2022-12-19T08:23:34.158Z,95859.09
2022-12-19T08:26:01.577Z,95858.53
2022-12-19T08:28:28.191Z,95846.50
2022-12-19T08:30:54.868Z,95856.75
2022-12-19T08:33:23.053Z,95851.56
2022-12-19T08:35:49.634Z,95854.75
2022-12-19T08:38:16.493Z,95848.69
2022-12-19T08:40:47.404Z,95844.88
2022-12-19T08:43:14.229Z,95843.50
2022-12-19T08:45:40.790Z,95839.41
2022-12-19T08:48:07.760Z,95837.47
2022-12-19T08:50:35.649Z,95835.97
2022-12-19T08:53:02.253Z,95840.22
2022-12-19T08:55:28.790Z,95832.19
2022-12-19T08:57:56.479Z,95835.31
2022-12-19T09:00:23.121Z,95825.75
2022-12-19T09:02:51.693Z,95822.31
2022-12-19T09:05:57.669Z,95819.44
2022-12-19T09:08:06.343Z,95808.34
2022-12-19T09:10:36.081Z,95808.50
2022-12-19T09:13:02.702Z,95806.03
2022-12-19T09:15:30.361Z,95796.34
2022-12-19T09:17:56.970Z,95788.94
2022-12-19T09:20:23.885Z,95775.53
2022-12-19T09:22:50.510Z,95775.25
2022-12-19T09:25:18.694Z,95761.44
2022-12-19T09:28:25.187Z,95738.88
2022-12-19T09:30:31.879Z,95727.53
2022-12-19T09:32:59.767Z,95731.63
2022-12-19T09:35:30.198Z,95721.47
2022-12-19T09:38:00.276Z,95714.53
2022-12-19T09:40:47.960Z,95708.38
2022-12-19T09:43:24.241Z,95707.66
2022-12-19T09:46:01.280Z,95713.28
2022-12-19T09:48:27.878Z,95704.88
2022-12-19T09:51:09.585Z,95703.28
2022-12-19T09:53:54.557Z,95698.75
2022-12-19T09:56:26.628Z,95699.03
2022-12-19T09:58:58.285Z,95697.66
2022-12-19T10:01:30.809Z,95706.59
2022-12-19T10:04:04.430Z,95701.34
2022-12-19T10:07:10.624Z,95701.22
2022-12-19T10:10:16.522Z,95696.84
2022-12-19T10:12:45.128Z,95695.19
2022-12-19T10:15:22.646Z,95705.03
2022-12-19T10:18:12.715Z,95713.94
2022-12-19T10:20:44.939Z,95728.97
2022-12-19T10:23:29.137Z,95722.69
2022-12-19T10:25:59.861Z,95721.63
2022-12-19T10:28:51.236Z,95728.97
2022-12-19T10:31:22.812Z,95742.81
2022-12-19T10:33:55.846Z,95745.25
2022-12-19T10:36:41.856Z,95747.47
2022-12-19T10:39:20.734Z,95746.84
2022-12-19T10:41:54.757Z,95740.50
2022-12-19T10:44:25.733Z,95736.00
2022-12-19T10:46:53.157Z,95737.25
2022-12-19T10:49:22.074Z,95748.31
2022-12-19T10:52:01.412Z,95745.31
2022-12-19T10:54:38.488Z,95744.50
2022-12-19T10:57:19.759Z,95752.81
2022-12-19T10:59:57.154Z,95748.44
2022-12-19T11:02:34.253Z,95739.16
2022-12-19T11:05:01.719Z,95734.88
2022-12-19T11:07:28.797Z,95741.19
2022-12-19T11:10:30.768Z,95751.28
2022-12-19T11:16:36.471Z,95738.78
2022-12-19T11:20:27.446Z,95731.28
2022-12-19T11:26:10.610Z,95727.34
2022-12-19T11:29:26.396Z,95729.22
2022-12-19T11:29:33.110Z,95721.16
2022-12-19T11:30:34.389Z,95726.00
2022-12-19T11:33:15.725Z,95717.94
2022-12-19T11:35:48.689Z,95709.78
2022-12-19T11:38:18.502Z,95705.28
2022-12-19T11:40:49.692Z,95691.16
2022-12-19T11:43:43.870Z,95693.50
2022-12-19T11:46:21.807Z,95682.41
2022-12-19T11:48:53.668Z,95670.91
2022-12-19T11:51:27.017Z,95674.22
2022-12-19T11:54:01.553Z,95662.78
2022-12-19T11:56:29.228Z,95654.22
2022-12-19T11:58:59.577Z,95652.66
2022-12-19T12:01:45.521Z,95652.31
2022-12-19T12:04:43.171Z,95645.25
2022-12-19T12:07:36.756Z,95648.13
2022-12-19T12:12:42.644Z,95645.88
2022-12-19T12:20:21.919Z,95639.38
2022-12-19T12:30:59.261Z,95627.50
2022-12-19T12:31:16.921Z,95631.47
2022-12-19T12:31:20.596Z,95622.91
2022-12-19T12:31:39.011Z,95613.19
2022-12-19T12:31:43.410Z,95630.28
2022-12-19T12:31:47.568Z,95623.78
2022-12-19T12:35:52.126Z,95622.75
2022-12-19T12:39:36.084Z,95639.69
2022-12-19T12:42:11.169Z,95650.88
2022-12-19T12:44:45.616Z,95649.13
2022-12-19T12:47:17.521Z,95657.19
2022-12-19T12:49:48.354Z,95664.78
2022-12-19T12:52:18.206Z,95682.44
2022-12-19T12:54:49.435Z,95677.69
2022-12-19T12:57:19.832Z,95677.75
2022-12-19T12:59:48.377Z,95665.75
2022-12-19T13:02:18.336Z,95667.00
2022-12-19T13:04:56.891Z,95656.69
2022-12-19T13:07:32.600Z,95660.53
2022-12-19T13:10:25.199Z,95640.53
2022-12-19T13:12:59.925Z,95642.09
2022-12-19T13:15:39.441Z,95636.59
2022-12-19T13:18:29.648Z,95632.22
2022-12-19T13:20:56.660Z,95627.66
2022-12-19T13:23:34.062Z,95621.78
2022-12-19T13:26:02.182Z,95615.34
2022-12-19T13:28:41.971Z,95611.00
2022-12-19T13:31:22.960Z,95608.06
2022-12-19T13:34:11.817Z,95603.06
2022-12-19T13:39:48.149Z,95594.50
2022-12-19T13:39:55.431Z,95588.78
2022-12-19T13:42:52.605Z,95596.13
2022-12-19T13:45:34.051Z,95585.94
2022-12-19T13:48:04.607Z,95573.97
2022-12-19T13:50:35.789Z,95569.66
2022-12-19T13:53:02.847Z,95576.72
2022-12-19T13:55:29.877Z,95577.41
2022-12-19T13:57:58.034Z,95568.44
2022-12-19T14:00:33.879Z,95572.47
2022-12-19T14:03:01.465Z,95562.66
2022-12-19T14:05:36.053Z,95563.59
2022-12-19T14:08:20.310Z,95573.94
2022-12-19T14:11:45.317Z,95568.38
2022-12-19T14:14:10.107Z,95570.13
2022-12-19T14:16:44.692Z,95570.13
2022-12-19T14:19:20.329Z,95572.16
2022-12-19T14:22:05.794Z,95571.66
2022-12-19T14:24:33.460Z,95563.47
2022-12-19T14:28:19.051Z,95568.91
2022-12-19T14:30:27.881Z,95570.69
2022-12-19T14:33:43.502Z,95566.91
2022-12-19T14:36:07.847Z,95573.34
2022-12-19T14:39:22.536Z,95572.63
2022-12-19T14:41:40.774Z,95568.84
2022-12-19T14:52:08.827Z,95569.81
2022-12-19T14:53:34.138Z,95573.59
2022-12-19T14:54:21.092Z,95570.69
2022-12-19T14:54:37.068Z,95575.59
2022-12-19T14:56:16.463Z,95580.59
2022-12-19T14:58:53.971Z,95585.28
2022-12-19T15:01:24.135Z,95583.72
2022-12-19T15:04:52.642Z,95586.22
2022-12-19T15:07:07.542Z,95584.00
2022-12-19T15:11:03.270Z,95599.63
2022-12-19T15:14:57.024Z,95610.19
2022-12-19T15:15:45.320Z,95610.72
2022-12-19T15:18:24.046Z,95619.50
2022-12-19T15:20:53.093Z,95623.72
2022-12-19T15:23:22.554Z,95625.38
2022-12-19T15:26:06.912Z,95634.81
2022-12-19T15:28:40.656Z,95633.03
2022-12-19T15:31:20.090Z,95634.00
2022-12-19T15:34:23.174Z,95641.81
2022-12-19T15:36:34.617Z,95648.50
2022-12-19T15:39:01.294Z,95655.50
2022-12-19T15:41:27.883Z,95660.69
2022-12-19T15:44:04.020Z,95654.38
2022-12-19T15:46:32.571Z,95654.38
2022-12-19T15:48:59.306Z,95664.78
2022-12-19T15:51:25.870Z,95668.22
2022-12-19T15:53:56.970Z,95657.13
2022-12-19T15:56:35.191Z,95656.16
2022-12-19T15:59:03.852Z,95662.19
2022-12-19T16:01:33.004Z,95657.78
2022-12-19T16:04:01.345Z,95666.13
2022-12-19T16:06:28.651Z,95657.66
2022-12-19T16:08:56.654Z,95668.56
2022-12-19T16:11:24.422Z,95666.88
2022-12-19T16:13:54.446Z,95672.22
2022-12-19T16:16:21.449Z,95671.78
2022-12-19T16:18:48.153Z,95678.31
2022-12-19T16:21:20.163Z,95681.75
2022-12-19T16:23:47.145Z,95686.00
2022-12-19T16:26:33.323Z,95684.06
2022-12-19T16:29:00.581Z,95696.09
2022-12-19T16:31:27.740Z,95692.00
2022-12-19T16:33:55.132Z,95692.69
2022-12-19T16:36:21.737Z,95697.63
2022-12-19T16:38:48.435Z,95698.72
2022-12-19T16:41:18.088Z,95694.03
2022-12-19T16:43:45.934Z,95702.56
2022-12-19T16:46:17.271Z,95697.03
2022-12-19T16:48:43.964Z,95698.50
2022-12-19T16:51:18.603Z,95711.88
2022-12-19T16:53:45.487Z,95710.97
2022-12-19T16:56:23.158Z,95712.47
2022-12-19T16:58:51.492Z,95715.00
2022-12-19T17:01:18.756Z,95712.31
2022-12-19T17:03:45.770Z,95711.06
2022-12-19T17:06:14.189Z,95706.81
2022-12-19T17:08:40.911Z,95704.75
2022-12-19T17:11:14.719Z,95708.31
2022-12-19T17:13:41.501Z,95704.41
2022-12-19T17:16:09.640Z,95709.00
2022-12-19T17:18:40.487Z,95700.56
2022-12-19T17:21:07.411Z,95707.72
2022-12-19T17:23:33.955Z,95711.06
2022-12-19T17:26:00.993Z,95707.72
2022-12-19T17:28:28.748Z,95715.16
2022-12-19T17:30:58.847Z,95713.44
2022-12-19T17:33:33.261Z,95710.38
2022-12-19T17:36:00.379Z,95711.06
2022-12-19T17:38:27.412Z,95709.28
2022-12-19T17:40:54.016Z,95706.53
2022-12-19T17:43:20.543Z,95708.53
2022-12-19T17:45:47.300Z,95706.00
2022-12-19T17:48:23.023Z,95704.88
2022-12-19T17:50:52.397Z,95692.69
2022-12-19T17:53:19.240Z,95691.44
2022-12-19T17:55:45.939Z,95701.72
2022-12-19T17:58:13.098Z,95698.16
2022-12-19T18:00:40.730Z,95694.84
2022-12-19T18:03:17.150Z,95701.38
2022-12-19T18:05:44.104Z,95695.72
2022-12-19T18:08:23.058Z,95693.19
2022-12-19T18:10:51.597Z,95686.66
2022-12-19T18:13:18.422Z,95686.13
2022-12-19T18:15:45.176Z,95681.66
2022-12-19T18:18:14.112Z,95685.03
2022-12-19T18:20:41.842Z,95675.97
2022-12-19T18:23:15.336Z,95672.66
2022-12-19T18:25:43.434Z,95659.53
2022-12-19T18:28:09.989Z,95661.69
2022-12-19T18:30:37.481Z,95652.22
2022-12-19T18:33:05.683Z,95646.06
2022-12-19T18:35:35.763Z,95645.91
2022-12-19T18:38:05.426Z,95635.19
2022-12-19T18:40:32.173Z,95631.56
2022-12-19T18:43:00.742Z,95630.81
2022-12-19T18:45:35.015Z,95637.34
2022-12-19T18:48:03.297Z,95623.84
2022-12-19T18:50:29.936Z,95624.00
2022-12-19T18:52:57.189Z,95606.13
2022-12-19T18:55:25.911Z,95611.41
2022-12-19T18:57:52.555Z,95612.34
2022-12-19T19:00:23.041Z,95612.63
2022-12-19T19:02:53.818Z,95608.75
2022-12-19T19:05:23.252Z,95610.28
2022-12-19T19:07:50.189Z,95608.72
2022-12-19T19:10:20.839Z,95608.09
2022-12-19T19:12:49.120Z,95601.53
2022-12-19T19:15:16.362Z,95602.09
2022-12-19T19:17:47.647Z,95596.56
2022-12-19T19:20:14.243Z,95589.44
2022-12-19T19:22:41.565Z,95584.22
2022-12-19T19:25:09.090Z,95582.88
2022-12-19T19:27:36.251Z,95582.94
2022-12-19T19:30:03.598Z,95581.28
2022-12-19T19:32:31.611Z,95578.66
2022-12-19T19:35:00.635Z,95588.09
2022-12-19T19:37:28.031Z,95583.63
2022-12-19T19:39:54.635Z,95587.84
2022-12-19T19:42:21.210Z,95587.81
2022-12-19T19:44:47.768Z,95582.38
2022-12-19T19:47:14.629Z,95583.66
2022-12-19T19:49:41.317Z,95587.44
2022-12-19T19:52:09.292Z,95576.94
2022-12-19T19:54:35.858Z,95576.81
2022-12-19T19:57:02.455Z,95579.38
2022-12-19T19:59:30.658Z,95565.91
2022-12-19T20:01:57.361Z,95573.78
2022-12-19T20:04:24.046Z,95576.03
2022-12-19T20:06:50.689Z,95563.59
2022-12-19T20:09:18.647Z,95570.06
2022-12-19T20:11:45.287Z,95569.81
2022-12-19T20:14:11.882Z,95571.50
2022-12-19T20:16:38.514Z,95574.13
2022-12-19T20:19:05.152Z,95589.09
2022-12-19T20:21:33.249Z,95576.94
2022-12-19T20:23:59.867Z,95576.00
2022-12-19T20:26:27.898Z,95570.41
2022-12-19T20:28:54.495Z,95575.72
2022-12-19T20:31:23.786Z,95563.84
2022-12-19T20:33:53.010Z,95566.25
2022-12-19T20:36:19.705Z,95564.63
2022-12-19T20:38:46.602Z,95566.31
2022-12-19T20:41:13.261Z,95554.81
2022-12-19T20:43:41.618Z,95559.09
2022-12-19T20:46:10.340Z,95564.47
2022-12-19T20:48:37.868Z,95569.38
2022-12-19T20:51:05.551Z,95559.66
2022-12-19T20:53:33.390Z,95573.81
2022-12-19T20:56:03.175Z,95565.44
2022-12-19T20:58:31.851Z,95568.25
2022-12-19T21:01:06.776Z,95565.28
2022-12-19T21:03:34.008Z,95566.97
2022-12-19T21:06:00.903Z,95561.69
2022-12-19T21:08:28.148Z,95562.31
2022-12-19T21:10:54.739Z,95555.47
2022-12-19T21:13:22.760Z,95551.63
2022-12-19T21:15:51.943Z,95555.88
2022-12-19T21:18:19.994Z,95550.41
2022-12-19T21:20:46.882Z,95548.31
2022-12-19T21:23:13.560Z,95564.38
2022-12-19T21:25:40.136Z,95559.97
2022-12-19T21:28:06.718Z,95556.78
2022-12-19T21:30:33.292Z,95555.06
2022-12-19T21:32:59.853Z,95554.44
2022-12-19T21:35:27.863Z,95550.00
2022-12-19T21:37:54.383Z,95544.47
2022-12-19T21:40:21.498Z,95551.00
2022-12-19T21:42:48.332Z,95554.47
2022-12-19T21:45:15.339Z,95553.47
2022-12-19T21:47:42.925Z,95546.38
2022-12-19T21:50:11.429Z,95551.31
2022-12-19T21:52:39.994Z,95551.94
2022-12-19T21:55:08.280Z,95544.97
2022-12-19T21:57:38.452Z,95541.41
2022-12-19T22:00:06.936Z,95539.19
2022-12-19T22:02:33.573Z,95541.16
2022-12-19T22:05:00.234Z,95529.31
2022-12-19T22:07:26.821Z,95534.38
2022-12-19T22:09:55.225Z,95539.59
2022-12-19T22:12:21.899Z,95552.47
2022-12-19T22:14:48.577Z,95551.09
2022-12-19T22:17:15.448Z,95537.56
2022-12-19T22:19:42.024Z,95544.47
2022-12-19T22:22:08.609Z,95542.34
2022-12-19T22:24:35.387Z,95543.50
2022-12-19T22:27:03.391Z,95542.19
2022-12-19T22:29:30.101Z,95537.97
2022-12-19T22:31:56.759Z,95538.41
2022-12-19T22:34:23.440Z,95533.84
2022-12-19T22:36:50.078Z,95526.19
2022-12-19T22:39:18.870Z,95528.22
2022-12-19T22:41:45.775Z,95529.00
2022-12-19T22:44:16.572Z,95521.72
2022-12-19T22:46:43.398Z,95533.78
2022-12-19T22:49:12.152Z,95536.63
2022-12-19T22:51:38.793Z,95523.41
2022-12-19T22:54:06.098Z,95529.00
2022-12-19T22:56:33.788Z,95523.09
2022-12-19T22:59:03.759Z,95523.88
2022-12-19T23:01:33.407Z,95518.25
2022-12-19T23:04:01.083Z,95524.09
2022-12-19T23:06:31.055Z,95529.06
2022-12-19T23:08:57.909Z,95538.00
2022-12-19T23:11:26.987Z,95536.41
2022-12-19T23:13:53.824Z,95543.88
2022-12-19T23:16:20.493Z,95546.66
2022-12-19T23:18:48.509Z,95544.59
2022-12-19T23:21:17.796Z,95540.94
2022-12-19T23:23:46.458Z,95545.44
2022-12-19T23:26:17.102Z,95545.00
2022-12-19T23:28:49.911Z,95546.50
2022-12-19T23:31:16.797Z,95544.56
2022-12-19T23:33:43.604Z,95539.53
2022-12-19T23:36:11.710Z,95533.84
2022-12-19T23:38:38.292Z,95528.59
2022-12-19T23:41:07.717Z,95520.78
2022-12-19T23:43:35.558Z,95515.56
2022-12-19T23:46:05.189Z,95517.88
2022-12-19T23:48:31.815Z,95524.81
2022-12-19T23:50:59.258Z,95521.25
2022-12-19T23:53:27.767Z,95528.75
2022-12-19T23:55:54.659Z,95534.63
2022-12-19T23:58:24.704Z,95543.28
